Time;durP1;ratioP1;P1;durP2;ratioP2;P2;SDS_P1;SDS_P2;PMS_P1;PMS_P2;Temp;Humidity;BMP_temperature;BMP_pressure;BME280_temperature;BME280_humidity;BME280_pressure;Samples;Min_cycle;Max_cycle;Signal;HPM_P1;HPM_P2
2024/02/14 00:01:57;;;;;;;;;;;;;;;23.47;33.72;101378.03;4232279;28;20320;-75
2024/02/14 00:03:59;;;;;;;;;;;;;;;23.45;33.34;101380.84;4231557;28;19924;-75
2024/02/14 00:06:00;;;;;;;;;;;;;;;23.44;33.56;101389.03;4232081;28;19924;-75
2024/02/14 00:08:03;;;;;;;;;;;;;;;23.43;33.54;101385.50;4232470;28;19927;-75
2024/02/14 00:10:06;;;;;;;;;;;;;;;23.40;33.51;101382.19;4232221;28;19930;-74
2024/02/14 00:12:09;;;;;;;;;;;;;;;23.40;33.64;101376.81;4231714;28;20015;-76
2024/02/14 00:14:10;;;;;;;;;;;;;;;23.39;33.55;101377.78;4214134;28;19964;-76
2024/02/14 00:16:12;;;;;;;;;;;;;;;23.38;33.59;101389.50;4231211;28;19930;-75
2024/02/14 00:18:15;;;;;;;;;;;;;;;23.38;33.79;101374.28;4232104;28;19924;-75
2024/02/14 00:20:17;;;;;;;;;;;;;;;23.39;33.60;101388.53;4231883;28;19924;-75
2024/02/14 00:22:18;;;;;;;;;;;;;;;23.38;33.55;101381.44;4231766;28;19931;-76
2024/02/14 00:24:20;;;;;;;;;;;;;;;23.37;33.92;101382.47;4231533;28;19924;-75
2024/02/14 00:26:22;;;;;;;;;;;;;;;23.38;33.75;101392.19;4231598;28;20355;-75
2024/02/14 00:28:26;;;;;;;;;;;;;;;23.38;34.02;101392.19;4231898;28;19923;-75
2024/02/14 00:30:28;;;;;;;;;;;;;;;23.39;33.64;101401.94;4213686;28;19928;-76
2024/02/14 00:32:31;;;;;;;;;;;;;;;23.38;33.67;101405.59;4231930;28;20385;-76
2024/02/14 00:34:33;;;;;;;;;;;;;;;23.39;33.83;101421.63;4231804;28;19924;-75
2024/02/14 00:36:35;;;;;;;;;;;;;;;23.38;33.75;101414.53;4213679;28;19928;-75
2024/02/14 00:38:37;;;;;;;;;;;;;;;23.37;33.98;101407.44;4231765;28;19924;-76
2024/02/14 00:40:38;;;;;;;;;;;;;;;23.37;34.08;101411.97;4231241;28;19967;-75
2024/02/14 00:42:40;;;;;;;;;;;;;;;23.37;33.84;101417.34;4231452;28;20309;-75
2024/02/14 00:44:42;;;;;;;;;;;;;;;23.36;33.90;101416.47;4231866;28;20023;-75
2024/02/14 00:46:43;;;;;;;;;;;;;;;23.38;33.75;101409.16;4231772;28;19976;-75
2024/02/14 00:48:45;;;;;;;;;;;;;;;23.39;34.08;101408.19;4231797;28;19924;-75
2024/02/14 00:50:47;;;;;;;;;;;;;;;23.38;33.83;101403.78;4231676;28;19991;-76
2024/02/14 00:52:49;;;;;;;;;;;;;;;23.37;33.97;101407.44;4213404;28;19931;-75
2024/02/14 00:54:50;;;;;;;;;;;;;;;23.37;33.86;101411.97;4213503;28;19924;-75
2024/02/14 00:56:52;;;;;;;;;;;;;;;23.37;34.10;101415.50;4231540;28;20011;-76
2024/02/14 00:58:54;;;;;;;;;;;;;;;23.37;33.84;101407.44;4231538;28;19924;-76
2024/02/14 01:00:55;;;;;;;;;;;;;;;23.37;33.94;101420.03;4231371;28;19946;-75
2024/02/14 01:02:57;;;;;;;;;;;;;;;23.37;33.92;101410.13;4231130;28;19924;-76
2024/02/14 01:04:59;;;;;;;;;;;;;;;23.38;33.76;101416.34;4231145;28;19928;-75
2024/02/14 01:07:01;;;;;;;;;;;;;;;23.37;33.98;101411.97;4231380;28;19976;-76
2024/02/14 01:09:03;;;;;;;;;;;;;;;23.38;34.28;101411.84;4231306;28;20411;-76
2024/02/14 01:11:04;;;;;;;;;;;;;;;23.37;34.31;101412.81;4230772;28;19924;-75
2024/02/14 01:13:06;;;;;;;;;;;;;;;23.37;33.98;101407.44;4231272;28;19932;-75
2024/02/14 01:15:08;;;;;;;;;;;;;;;23.37;34.04;101399.41;4231378;28;20031;-75
2024/02/14 01:17:09;;;;;;;;;;;;;;;23.38;34.32;101403.78;4231070;28;19973;-75
2024/02/14 01:19:11;;;;;;;;;;;;;;;23.39;34.13;101402.81;4231396;28;19937;-75
2024/02/14 01:21:13;;;;;;;;;;;;;;;23.39;34.04;101407.31;4231300;28;19930;-75
2024/02/14 01:23:15;;;;;;;;;;;;;;;23.39;34.03;101412.69;4212872;28;19924;-76
2024/02/14 01:25:16;;;;;;;;;;;;;;;23.38;34.01;101397.56;4230728;28;19930;-75
2024/02/14 01:27:23;;;;;;;;;;;;;;;23.38;34.38;101406.47;4230967;28;20006;-75
2024/02/14 01:29:24;;;;;;;;;;;;;;;23.37;34.01;101407.44;4231251;28;19924;-74
2024/02/14 01:31:26;;;;;;;;;;;;;;;23.37;34.06;101410.13;4231155;28;20372;-75
2024/02/14 01:33:30;;;;;;;;;;;;;;;23.37;34.13;101415.50;4230986;28;19930;-75
2024/02/14 01:35:32;;;;;;;;;;;;;;;23.37;34.28;101425.41;4230746;28;19984;-75
2024/02/14 01:37:34;;;;;;;;;;;;;;;23.37;34.12;101428.09;4230950;28;20295;-74
2024/02/14 01:39:40;;;;;;;;;;;;;;;23.36;34.08;101424.53;4230700;28;20484;-75
2024/02/14 01:41:51;;;;;;;;;;;;;;;23.35;34.33;101425.50;4230900;28;20018;-75
2024/02/14 01:43:52;;;;;;;;;;;;;;;23.34;34.15;101433.69;4230876;28;19924;-75
2024/02/14 01:45:54;;;;;;;;;;;;;;;23.33;34.38;101435.53;4230919;28;20006;-75
2024/02/14 01:47:56;;;;;;;;;;;;;;;23.34;34.18;101436.38;4231154;28;19923;-74
2024/02/14 01:49:58;;;;;;;;;;;;;;;23.34;34.17;101441.72;4230959;28;20359;-75
2024/02/14 01:52:02;;;;;;;;;;;;;;;23.34;34.47;101444.41;4230613;28;19976;-75
2024/02/14 01:54:04;;;;;;;;;;;;;;;23.33;34.24;101440.88;4230528;28;20456;-75
2024/02/14 01:56:06;;;;;;;;;;;;;;;23.34;34.20;101436.38;4230867;28;20388;-75
2024/02/14 01:58:08;;;;;;;;;;;;;;;23.33;34.35;101445.38;4230901;28;20421;-75
2024/02/14 02:00:17;;;;;;;;;;;;;;;23.34;34.30;101455.16;4230710;28;20454;-75
2024/02/14 02:02:19;;;;;;;;;;;;;;;23.34;34.48;101449.78;4230923;28;19930;-75
2024/02/14 02:04:21;;;;;;;;;;;;;;;23.32;34.45;101449.91;4230921;28;19924;-75
2024/02/14 02:06:23;;;;;;;;;;;;;;;23.32;34.35;101439.19;4212530;28;19934;-75
2024/02/14 02:08:24;;;;;;;;;;;;;;;23.33;34.33;101434.66;4230214;28;19969;-75
2024/02/14 02:10:27;;;;;;;;;;;;;;;23.32;34.51;101447.22;4230618;28;19924;-75
2024/02/14 02:12:33;;;;;;;;;;;;;;;23.29;34.35;101445.66;4213441;28;20011;-75
2024/02/14 02:14:40;;;;;;;;;;;;;;;23.29;34.49;101444.78;4230792;28;19928;-75
2024/02/14 02:16:46;;;;;;;;;;;;;;;23.29;34.64;101437.59;4230707;28;19972;-75
2024/02/14 02:18:51;;;;;;;;;;;;;;;23.29;34.81;101445.66;4230808;28;19927;-75
2024/02/14 02:20:52;;;;;;;;;;;;;;;23.29;34.38;101453.69;4230732;28;19928;-75
2024/02/14 02:22:54;;;;;;;;;;;;;;;23.28;34.40;101446.63;4212449;28;19974;-75
2024/02/14 02:24:55;;;;;;;;;;;;;;;23.28;34.49;101440.38;4230677;28;19962;-75
2024/02/14 02:27:03;;;;;;;;;;;;;;;23.28;34.72;101440.38;4230737;28;19923;-75
2024/02/14 02:29:05;;;;;;;;;;;;;;;23.29;34.65;101439.41;4230677;28;19930;-75
2024/02/14 02:31:09;;;;;;;;;;;;;;;23.29;34.47;101442.09;4230496;28;19923;-75
2024/02/14 02:33:10;;;;;;;;;;;;;;;23.29;34.49;101442.09;4230599;28;20022;-75
2024/02/14 02:35:12;;;;;;;;;;;;;;;23.28;34.80;101441.25;4212487;28;19931;-75
2024/02/14 02:37:13;;;;;;;;;;;;;;;23.29;34.59;101447.47;4230305;28;19924;-75
2024/02/14 02:39:15;;;;;;;;;;;;;;;23.27;34.49;101449.44;4212512;28;19924;-74
2024/02/14 02:41:22;;;;;;;;;;;;;;;23.25;34.49;101444.16;4233446;28;19924;-75
2024/02/14 02:43:24;;;;;;;;;;;;;;;23.24;34.61;101445.13;4233857;28;19930;-75
2024/02/14 02:45:25;;;;;;;;;;;;;;;23.25;34.77;101443.31;4233554;28;19924;-75
2024/02/14 02:47:27;;;;;;;;;;;;;;;23.25;34.55;101449.53;4233714;28;19924;-75
2024/02/14 02:49:36;;;;;;;;;;;;;;;23.25;34.80;101452.22;4233339;28;20018;-75
2024/02/14 02:51:37;;;;;;;;;;;;;;;23.26;34.76;101450.41;4233252;28;19924;-75
2024/02/14 02:53:44;;;;;;;;;;;;;;;23.27;34.85;101446.75;4233454;28;19923;-74
2024/02/14 02:55:45;;;;;;;;;;;;;;;23.26;34.92;101450.41;4233617;28;19924;-74
2024/02/14 02:57:47;;;;;;;;;;;;;;;23.26;34.72;101445.03;4233379;28;19928;-75
2024/02/14 02:59:49;;;;;;;;;;;;;;;23.27;34.91;101450.28;4233439;28;19963;-74
2024/02/14 03:01:52;;;;;;;;;;;;;;;23.27;34.71;101442.22;4233379;28;20010;-74
2024/02/14 03:03:54;;;;;;;;;;;;;;;23.29;35.10;101450.13;4233424;28;19924;-75
2024/02/14 03:05:56;;;;;;;;;;;;;;;23.28;34.77;101446.63;4214903;28;19925;-75
2024/02/14 03:07:58;;;;;;;;;;;;;;;23.28;34.79;101446.63;4233326;28;19924;-74
2024/02/14 03:10:00;;;;;;;;;;;;;;;23.29;34.79;101442.09;4233247;28;19924;-75
2024/02/14 03:12:02;;;;;;;;;;;;;;;23.29;34.80;101437.59;4215265;28;19928;-75
2024/02/14 03:14:05;;;;;;;;;;;;;;;23.30;34.89;101446.47;4233219;28;19994;-75
2024/02/14 03:16:07;;;;;;;;;;;;;;;23.31;34.81;101441.97;4233057;28;19986;-74
2024/02/14 03:18:09;;;;;;;;;;;;;;;23.32;34.84;101430.25;4215089;28;19935;-75
2024/02/14 03:20:12;;;;;;;;;;;;;;;23.32;35.00;101436.50;4232724;28;20321;-74
2024/02/14 03:22:18;;;;;;;;;;;;;;;23.32;34.97;101441.00;4233185;28;19924;-74
2024/02/14 03:24:20;;;;;;;;;;;;;;;23.33;34.95;101440.88;4214890;28;20392;-74
2024/02/14 03:26:21;;;;;;;;;;;;;;;23.33;35.14;101443.56;4232816;28;19984;-75
2024/02/14 03:28:24;;;;;;;;;;;;;;;23.34;35.01;101449.78;4233140;28;19966;-74
2024/02/14 03:30:27;;;;;;;;;;;;;;;23.34;34.87;101445.25;4233006;28;19930;-74
2024/02/14 03:32:29;;;;;;;;;;;;;;;23.34;34.87;101447.09;4232817;28;20397;-75
2024/02/14 03:34:33;;;;;;;;;;;;;;;23.34;34.89;101439.88;4232506;28;20346;-74
2024/02/14 03:36:36;;;;;;;;;;;;;;;23.34;34.85;101442.56;4232732;28;20010;-74
2024/02/14 03:38:39;;;;;;;;;;;;;;;23.34;34.92;101441.72;4232831;28;19931;-75
2024/02/14 03:40:41;;;;;;;;;;;;;;;23.34;34.92;101444.41;4232655;28;19935;-73
2024/02/14 03:42:43;;;;;;;;;;;;;;;23.34;35.21;101444.41;4232475;28;19974;-74
2024/02/14 03:44:46;;;;;;;;;;;;;;;23.32;35.31;101432.94;4232629;28;19931;-74
2024/02/14 03:46:47;;;;;;;;;;;;;;;23.30;35.20;101427.69;4214428;28;19924;-74
2024/02/14 03:48:49;;;;;;;;;;;;;;;23.29;35.05;101440.28;4232951;28;19927;-74
2024/02/14 03:50:51;;;;;;;;;;;;;;;23.28;35.18;101441.25;4231888;28;20027;-74
2024/02/14 03:52:53;;;;;;;;;;;;;;;23.30;35.23;101443.81;4232619;28;19984;-74
2024/02/14 03:54:55;;;;;;;;;;;;;;;23.31;35.32;101442.84;4232545;28;19924;-74
2024/02/14 03:56:56;;;;;;;;;;;;;;;23.32;35.09;101433.81;4232543;28;20340;-74
2024/02/14 03:59:02;;;;;;;;;;;;;;;23.34;35.12;101433.69;4232291;28;19969;-74
2024/02/14 04:01:04;;;;;;;;;;;;;;;23.32;34.95;101436.50;4232359;28;19931;-74
2024/02/14 04:03:07;;;;;;;;;;;;;;;23.32;35.22;101438.31;4214323;28;19924;-74
2024/02/14 04:05:09;;;;;;;;;;;;;;;23.31;35.20;101444.63;4231910;28;19930;-75
2024/02/14 04:07:11;;;;;;;;;;;;;;;23.32;35.08;101449.03;4232327;28;19980;-75
2024/02/14 04:09:12;;;;;;;;;;;;;;;23.30;35.09;101449.16;4232329;28;19924;-74
2024/02/14 04:11:14;;;;;;;;;;;;;;;23.30;35.45;101449.16;4232469;28;20340;-74
2024/02/14 04:13:16;;;;;;;;;;;;;;;23.29;35.19;101448.34;4232264;28;20352;-75
2024/02/14 04:15:17;;;;;;;;;;;;;;;23.28;35.20;101443.94;4232193;28;19924;-73
2024/02/14 04:17:19;;;;;;;;;;;;;;;23.29;35.13;101447.47;4232230;28;19924;-74
2024/02/14 04:19:21;;;;;;;;;;;;;;;23.31;35.21;101448.19;4231731;28;19932;-74
2024/02/14 04:21:22;;;;;;;;;;;;;;;23.31;35.17;101458.94;4214235;28;20033;-74
2024/02/14 04:23:25;;;;;;;;;;;;;;;23.30;35.41;101467.97;4231885;28;19930;-73
2024/02/14 04:25:27;;;;;;;;;;;;;;;23.30;35.47;101457.22;4231742;28;20367;-74
2024/02/14 04:27:28;;;;;;;;;;;;;;;23.31;35.50;101458.06;4232257;28;19923;-74
2024/02/14 04:29:32;;;;;;;;;;;;;;;23.30;35.51;101446.47;4213940;28;19979;-74
2024/02/14 04:31:34;;;;;;;;;;;;;;;23.32;35.47;101454.41;4232116;28;19924;-74
2024/02/14 04:33:36;;;;;;;;;;;;;;;23.33;35.50;101456.13;4231497;28;19924;-74
2024/02/14 04:35:38;;;;;;;;;;;;;;;23.32;35.41;101452.59;4231665;28;19924;-74
2024/02/14 04:37:40;;;;;;;;;;;;;;;23.33;35.57;101453.44;4231217;28;19953;-74
2024/02/14 04:39:42;;;;;;;;;;;;;;;23.32;35.24;101452.59;4231932;28;20468;-74
2024/02/14 04:41:43;;;;;;;;;;;;;;;23.32;35.41;101454.41;4213498;28;19924;-74
2024/02/14 04:44:01;;;;;;;;;;;;;;;23.31;35.32;101453.56;4232051;28;19935;-73
2024/02/14 04:46:06;;;;;;;;;;;;;;;23.31;35.72;101452.69;4231521;28;20335;-74
2024/02/14 04:48:10;;;;;;;;;;;;;;;23.31;35.38;101458.06;4230669;28;22777;-74
2024/02/14 04:50:12;;;;;;;;;;;;;;;23.31;35.29;101450.00;4231723;28;19931;-75
2024/02/14 04:52:13;;;;;;;;;;;;;;;23.32;35.66;101443.69;4231360;28;19928;-74
2024/02/14 04:54:16;;;;;;;;;;;;;;;23.34;35.45;101436.38;4231643;28;19924;-73
2024/02/14 04:56:18;;;;;;;;;;;;;;;23.34;35.49;101436.38;4231542;28;19923;-75
2024/02/14 04:58:20;;;;;;;;;;;;;;;23.35;35.38;101444.28;4231509;28;20007;-75
2024/02/14 05:00:21;;;;;;;;;;;;;;;23.35;35.68;101446.97;4231817;28;19928;-74
2024/02/14 05:02:23;;;;;;;;;;;;;;;23.34;35.27;101444.41;4230735;28;19924;-74
2024/02/14 05:04:24;;;;;;;;;;;;;;;23.35;35.50;101443.44;4231508;28;20006;-75
2024/02/14 05:06:26;;;;;;;;;;;;;;;23.35;35.64;101438.06;4231494;28;19923;-74
2024/02/14 05:08:28;;;;;;;;;;;;;;;23.34;35.49;101452.47;4231434;28;19923;-74
2024/02/14 05:10:30;;;;;;;;;;;;;;;23.34;35.77;101458.69;4231397;28;19931;-74
2024/02/14 05:12:32;;;;;;;;;;;;;;;23.35;35.50;101452.34;4231286;28;19934;-74
2024/02/14 05:14:37;;;;;;;;;;;;;;;23.37;35.42;101454.94;4231285;28;19923;-74
2024/02/14 05:16:38;;;;;;;;;;;;;;;23.37;35.82;101460.28;4231025;28;19971;-74
2024/02/14 05:18:40;;;;;;;;;;;;;;;23.37;35.38;101462.97;4231490;28;19955;-75
2024/02/14 05:20:42;;;;;;;;;;;;;;;23.38;35.57;101468.22;4231225;28;19934;-75
2024/02/14 05:22:43;;;;;;;;;;;;;;;23.39;35.38;101475.31;4213102;28;19927;-75
2024/02/14 05:24:46;;;;;;;;;;;;;;;23.38;35.60;101468.22;4231147;28;19959;-75
2024/02/14 05:26:47;;;;;;;;;;;;;;;23.39;35.60;101475.31;4231166;28;19930;-74
2024/02/14 05:28:49;;;;;;;;;;;;;;;23.40;35.42;101457.34;4231078;28;19982;-75
2024/02/14 05:30:51;;;;;;;;;;;;;;;23.40;35.43;101452.84;4230907;28;20287;-74
2024/02/14 05:32:52;;;;;;;;;;;;;;;23.39;35.54;101448.47;4231077;28;19934;-74
2024/02/14 05:34:54;;;;;;;;;;;;;;;23.39;35.83;101453.81;4230887;28;19939;-74
2024/02/14 05:36:56;;;;;;;;;;;;;;;23.39;35.88;101443.09;4230938;28;20295;-75
2024/02/14 05:38:57;;;;;;;;;;;;;;;23.40;35.44;101436.75;4231397;28;20014;-74
2024/02/14 05:41:00;;;;;;;;;;;;;;;23.39;35.56;101442.22;4230774;28;20296;-75
2024/02/14 05:43:01;;;;;;;;;;;;;;;23.39;35.68;101439.53;4231048;28;19924;-75
2024/02/14 05:45:03;;;;;;;;;;;;;;;23.39;35.54;101434.16;4230728;28;19982;-75
2024/02/14 05:47:05;;;;;;;;;;;;;;;23.39;35.54;101436.84;4230999;28;19927;-73
2024/02/14 05:49:07;;;;;;;;;;;;;;;23.38;35.54;101444.06;4231023;28;20420;-74
2024/02/14 05:51:09;;;;;;;;;;;;;;;23.39;35.62;101436.84;4231101;28;19923;-75
2024/02/14 05:53:12;;;;;;;;;;;;;;;23.39;35.50;101444.91;4231058;28;19936;-75
2024/02/14 05:55:14;;;;;;;;;;;;;;;23.40;35.65;101438.56;4230666;28;19928;-74
2024/02/14 05:57:16;;;;;;;;;;;;;;;23.40;35.68;101435.88;4231142;28;19928;-74
2024/02/14 05:59:18;;;;;;;;;;;;;;;23.40;35.74;101442.13;4230788;28;19924;-75
2024/02/14 06:01:20;;;;;;;;;;;;;;;23.41;35.54;101446.50;4230596;28;20021;-74
2024/02/14 06:03:22;;;;;;;;;;;;;;;23.42;35.58;101450.03;4230872;28;19959;-73
2024/02/14 06:05:24;;;;;;;;;;;;;;;23.41;35.71;101442.97;4230868;28;20495;-74
2024/02/14 06:07:25;;;;;;;;;;;;;;;23.41;36.01;101445.66;4230809;28;19927;-74
2024/02/14 06:09:27;;;;;;;;;;;;;;;23.41;35.70;101451.84;4230815;28;19924;-73
2024/02/14 06:11:28;;;;;;;;;;;;;;;23.39;35.97;101456.50;4230681;28;19924;-74
2024/02/14 06:13:38;;;;;;;;;;;;;;;23.38;35.75;101461.97;4230742;28;20010;-74
2024/02/14 06:15:39;;;;;;;;;;;;;;;23.37;35.80;101461.13;4214683;28;19924;-74
2024/02/14 06:17:41;;;;;;;;;;;;;;;23.37;35.78;101457.59;4234222;28;19923;-75
2024/02/14 06:19:43;;;;;;;;;;;;;;;23.37;36.11;101461.13;4215910;28;19935;-75
2024/02/14 06:21:44;;;;;;;;;;;;;;;23.37;35.66;101466.50;4233834;28;20010;-74
2024/02/14 06:23:46;;;;;;;;;;;;;;;23.37;35.68;101463.81;4233978;28;20354;-74
2024/02/14 06:25:48;;;;;;;;;;;;;;;23.37;35.85;101466.50;4233895;28;19928;-74
2024/02/14 06:27:50;;;;;;;;;;;;;;;23.38;35.75;101470.91;4234000;28;19930;-75
2024/02/14 06:29:56;;;;;;;;;;;;;;;23.38;35.61;101467.34;4233412;28;19967;-74
2024/02/14 06:31:58;;;;;;;;;;;;;;;23.36;35.87;101464.78;4233960;28;20022;-73
2024/02/14 06:33:59;;;;;;;;;;;;;;;23.35;35.71;101468.44;4233980;28;20304;-74
2024/02/14 06:36:06;;;;;;;;;;;;;;;23.34;35.92;101479.31;4233846;28;19924;-74
2024/02/14 06:38:07;;;;;;;;;;;;;;;23.32;35.84;101481.25;4233589;28;19923;-75
2024/02/14 06:40:10;;;;;;;;;;;;;;;23.29;35.78;101485.91;4233771;28;20334;-74
2024/02/14 06:42:11;;;;;;;;;;;;;;;23.27;35.91;101478.94;4233526;28;19976;-74
2024/02/14 06:44:13;;;;;;;;;;;;;;;23.26;35.96;101487.97;4233297;28;19946;-75
2024/02/14 06:46:15;;;;;;;;;;;;;;;23.25;35.99;101486.25;4233430;28;20014;-74
2024/02/14 06:48:20;;;;;;;;;;;;;;;23.24;36.38;101488.06;4233686;28;19966;-74
2024/02/14 06:50:25;;;;;;;;;;;;;;;23.23;36.23;101498.94;4233652;28;19927;-74
2024/02/14 06:52:26;;;;;;;;;;;;;;;23.23;36.08;101494.44;4233425;28;19936;-74
2024/02/14 06:54:28;;;;;;;;;;;;;;;23.22;36.07;101492.72;4233521;28;20003;-74
2024/02/14 06:56:30;;;;;;;;;;;;;;;23.22;36.21;101498.09;4233664;28;20015;-75
2024/02/14 06:58:32;;;;;;;;;;;;;;;23.22;36.22;101507.94;4232958;28;19930;-74
2024/02/14 07:00:34;;;;;;;;;;;;;;;23.21;36.19;101519.66;4233393;28;19924;-73
2024/02/14 07:02:36;;;;;;;;;;;;;;;23.20;36.22;101512.59;4233470;28;19981;-74
2024/02/14 07:04:38;;;;;;;;;;;;;;;23.18;36.61;101509.16;4233378;28;19928;-74
2024/02/14 07:06:40;;;;;;;;;;;;;;;23.18;36.51;101522.59;4233240;28;20393;-74
2024/02/14 07:08:41;;;;;;;;;;;;;;;23.16;36.29;101522.69;4233380;28;19928;-74
2024/02/14 07:10:43;;;;;;;;;;;;;;;23.14;36.29;101520.09;4215150;28;19925;-74
2024/02/14 07:12:44;;;;;;;;;;;;;;;23.14;36.33;101521.94;4232931;28;19947;-74
2024/02/14 07:14:47;;;;;;;;;;;;;;;23.15;36.42;101523.66;4233238;28;20018;-74
2024/02/14 07:16:48;;;;;;;;;;;;;;;23.16;36.36;101516.44;4233135;28;19923;-74
2024/02/14 07:18:50;;;;;;;;;;;;;;;23.17;36.67;101508.28;4233069;28;19924;-74
2024/02/14 07:20:52;;;;;;;;;;;;;;;23.18;36.79;101506.47;4233193;28;19924;-74
2024/02/14 07:22:56;;;;;;;;;;;;;;;23.19;36.69;101505.50;4233175;28;20026;-73
2024/02/14 07:24:58;;;;;;;;;;;;;;;23.20;36.32;101505.38;4233163;28;19924;-74
2024/02/14 07:27:00;;;;;;;;;;;;;;;23.21;36.40;101516.97;4232052;28;19923;-74
2024/02/14 07:29:03;;;;;;;;;;;;;;;23.21;36.46;101519.66;4233067;28;19923;-74
2024/02/14 07:31:05;;;;;;;;;;;;;;;23.21;36.61;101533.06;4232886;28;19934;-73
2024/02/14 07:33:07;;;;;;;;;;;;;;;23.22;36.61;101540.16;4233052;28;19923;-74
2024/02/14 07:35:09;;;;;;;;;;;;;;;23.20;36.67;101540.28;4233173;28;20266;-74
2024/02/14 07:37:11;;;;;;;;;;;;;;;23.20;36.57;101550.16;4214648;28;20274;-74
2024/02/14 07:39:12;;;;;;;;;;;;;;;23.19;36.60;101543.09;4232833;28;20396;-74
2024/02/14 07:41:14;;;;;;;;;;;;;;;23.20;36.53;101550.16;4214170;28;20032;-74
2024/02/14 07:43:15;;;;;;;;;;;;;;;23.22;36.60;101546.41;4215801;28;19946;-74
2024/02/14 07:45:17;;;;;;;;;;;;;;;23.22;36.90;101546.41;4216045;28;20266;-74
2024/02/14 07:47:19;;;;;;;;;;;;;;;23.25;36.58;101561.41;4215794;28;19976;-74
2024/02/14 07:49:25;;;;;;;;;;;;;;;23.26;36.46;101565.81;4215665;28;20389;-73
2024/02/14 07:51:28;;;;;;;;;;;;;;;23.27;36.66;101563.00;4215822;28;19924;-74
2024/02/14 07:53:30;;;;;;;;;;;;;;;23.27;36.58;101557.63;4215610;28;19924;-74
2024/02/14 07:55:31;;;;;;;;;;;;;;;23.29;36.41;101554.81;4215262;28;19924;-74
2024/02/14 07:57:38;;;;;;;;;;;;;;;23.29;36.69;101555.69;4215661;28;20297;-75
2024/02/14 07:59:40;;;;;;;;;;;;;;;23.30;36.51;101548.47;4215791;28;19925;-74
2024/02/14 08:01:43;;;;;;;;;;;;;;;23.31;36.88;101543.94;4215490;28;20339;-74
2024/02/14 08:03:46;;;;;;;;;;;;;;;23.32;36.56;101541.16;4215596;28;19982;-74
2024/02/14 08:05:48;;;;;;;;;;;;;;;23.31;36.81;101542.13;4215569;28;20023;-74
2024/02/14 08:07:49;;;;;;;;;;;;;;;23.30;36.79;101551.16;4215442;28;19985;-73
2024/02/14 08:09:51;;;;;;;;;;;;;;;23.30;36.69;101556.53;4215372;28;20370;-74
2024/02/14 08:11:57;;;;;;;;;;;;;;;23.30;36.99;101561.91;4215241;28;20027;-73
2024/02/14 08:14:05;;;;;;;;;;;;;;;23.32;36.68;101561.78;4215092;28;19928;-74
2024/02/14 08:16:06;;;;;;;;;;;;;;;23.34;36.67;101565.19;4215336;28;19964;-72
2024/02/14 08:18:08;;;;;;;;;;;;;;;23.37;36.74;101567.66;4215626;28;20297;-72
2024/02/14 08:20:11;;;;;;;;;;;;;;;23.38;36.59;101562.16;4215219;28;20378;-73
2024/02/14 08:22:13;;;;;;;;;;;;;;;23.39;36.77;101565.69;4215271;28;19931;-73
2024/02/14 08:24:14;;;;;;;;;;;;;;;23.38;36.65;101564.84;4215324;28;19935;-72
2024/02/14 08:26:16;;;;;;;;;;;;;;;23.39;36.60;101557.66;4214693;28;19955;-73
2024/02/14 08:28:18;;;;;;;;;;;;;;;23.40;36.59;101568.28;4215178;28;20376;-73
2024/02/14 08:30:19;;;;;;;;;;;;;;;23.40;36.65;101570.09;4214938;28;19932;-73
2024/02/14 08:32:21;;;;;;;;;;;;;;;23.39;36.61;101568.38;4214854;28;20377;-73
2024/02/14 08:34:26;;;;;;;;;;;;;;;23.38;36.64;101575.59;4215212;28;20408;-73
2024/02/14 08:36:28;;;;;;;;;;;;;;;23.38;36.64;101583.66;4213744;28;20401;-73
2024/02/14 08:38:30;;;;;;;;;;;;;;;23.38;36.88;101578.28;4214206;28;20310;-74
2024/02/14 08:40:31;;;;;;;;;;;;;;;23.38;36.83;101572.91;4214609;28;19924;-73
2024/02/14 08:42:34;;;;;;;;;;;;;;;23.40;36.88;101575.47;4228852;28;19924;-73
2024/02/14 08:44:35;;;;;;;;;;;;;;;23.42;36.60;101581.59;4231873;28;19941;-73
2024/02/14 08:46:38;;;;;;;;;;;;;;;23.43;36.65;101570.72;4231706;28;19931;-72
2024/02/14 08:48:45;;;;;;;;;;;;;;;23.44;36.75;101574.28;4231743;28;20011;-72
2024/02/14 08:50:50;;;;;;;;;;;;;;;23.44;36.74;101568.91;4231698;28;19924;-72
2024/02/14 08:52:51;;;;;;;;;;;;;;;23.45;36.70;101565.22;4231513;28;19930;-73
2024/02/14 08:54:53;;;;;;;;;;;;;;;23.45;36.91;101565.22;4231276;28;19923;-73
2024/02/14 08:56:58;;;;;;;;;;;;;;;23.45;36.68;101571.47;4231657;28;19928;-72
2024/02/14 08:59:03;;;;;;;;;;;;;;;23.45;36.70;101565.22;4231526;28;19924;-72
2024/02/14 09:01:05;;;;;;;;;;;;;;;23.44;37.07;101572.44;4231379;28;19966;-74
2024/02/14 09:03:16;;;;;;;;;;;;;;;23.43;37.04;101575.25;4231171;27;19937;-74
2024/02/14 09:05:18;;;;;;;;;;;;;;;23.43;36.83;101568.03;4222897;27;19928;-74
2024/02/14 09:07:20;;;;;;;;;;;;;;;23.44;36.92;101582.34;4229239;28;19978;-75
2024/02/14 09:09:22;;;;;;;;;;;;;;;23.47;36.80;101591.97;4218862;28;19973;-74
2024/02/14 09:11:25;;;;;;;;;;;;;;;23.48;37.06;101596.38;4214117;28;19924;-73
2024/02/14 09:13:27;;;;;;;;;;;;;;;23.48;36.93;101591.84;4214287;28;20347;-75
2024/02/14 09:15:30;;;;;;;;;;;;;;;23.49;37.16;101595.38;4213933;28;20011;-74
2024/02/14 09:17:32;;;;;;;;;;;;;;;23.49;37.45;101590.88;4227546;28;19965;-76
2024/02/14 09:19:34;;;;;;;;;;;;;;;23.50;37.21;101595.28;4224563;28;19970;-75
2024/02/14 09:21:36;;;;;;;;;;;;;;;23.52;37.10;101589.78;4229216;28;20037;-73
2024/02/14 09:23:39;;;;;;;;;;;;;;;23.51;37.41;101582.69;4230640;28;20011;-73
2024/02/14 09:25:41;;;;;;;;;;;;;;;23.52;37.38;101584.41;4229990;28;19932;-74
2024/02/14 09:27:44;;;;;;;;;;;;;;;23.52;37.53;101593.31;4228770;28;20392;-70
2024/02/14 09:29:45;;;;;;;;;;;;;;;23.52;37.82;101596.00;4223166;28;19927;-72
2024/02/14 09:31:48;;;;;;;;;;;;;;;23.49;38.19;101587.31;4208594;28;19973;-73
2024/02/14 09:33:50;;;;;;;;;;;;;;;23.48;38.02;101582.94;4230591;28;19956;-75
2024/02/14 09:35:52;;;;;;;;;;;;;;;23.46;37.92;101577.69;4230895;28;19928;-79
2024/02/14 09:37:55;;;;;;;;;;;;;;;23.48;38.03;101580.28;4226097;28;19935;-68
2024/02/14 09:39:57;;;;;;;;;;;;;;;23.45;38.02;101576.84;4230752;28;19930;-71
2024/02/14 09:42:02;;;;;;;;;;;;;;;23.47;38.82;101567.81;4230600;28;19924;-70
2024/02/14 09:44:03;;;;;;;;;;;;;;;23.47;39.01;101568.66;4230147;28;19924;-74
2024/02/14 09:46:07;;;;;;;;;;;;;;;23.46;38.91;101575.00;4223030;28;19985;-75
2024/02/14 09:48:09;;;;;;;;;;;;;;;23.47;39.23;101576.72;4228456;28;19927;-76
2024/02/14 09:50:12;;;;;;;;;;;;;;;23.47;39.40;101574.03;4233740;27;20306;-73
2024/02/14 09:52:15;;;;;;;;;;;;;;;23.47;39.22;101571.34;4235380;28;20001;-70
2024/02/14 09:54:20;;;;;;;;;;;;;;;23.49;39.39;101579.28;4213384;28;20401;-74
2024/02/14 09:56:24;;;;;;;;;;;;;;;23.50;39.34;101564.88;4234000;28;20405;-70
2024/02/14 09:58:27;;;;;;;;;;;;;;;23.52;39.26;101554.88;4236162;28;20372;-75
2024/02/14 10:00:31;;;;;;;;;;;;;;;23.56;39.17;101562.59;4235667;28;19959;-74
2024/02/14 10:02:32;;;;;;;;;;;;;;;23.54;38.98;101553.78;4234759;27;19968;-70
2024/02/14 10:04:35;;;;;;;;;;;;;;;23.53;39.04;101551.22;4235873;28;20363;-74
2024/02/14 10:06:37;;;;;;;;;;;;;;;23.53;39.26;101556.59;4235477;28;19959;-70
2024/02/14 10:08:40;;;;;;;;;;;;;;;23.56;39.57;101562.59;4235869;28;19971;-72
2024/02/14 10:10:56;;;;;;;;;;;;;;;23.61;39.47;101571.13;4219532;28;19935;-71
2024/02/14 10:12:58;;;;;;;;;;;;;;;23.66;39.05;101567.22;4235542;28;20369;-75
2024/02/14 10:15:01;;;;;;;;;;;;;;;23.69;39.05;101558.94;4234969;27;19924;-73
2024/02/14 10:17:03;;;;;;;;;;;;;;;23.70;39.05;101566.03;4235328;28;20385;-72
2024/02/14 10:19:07;;;;;;;;;;;;;;;23.73;38.98;101560.41;4235717;28;19924;-71
2024/02/14 10:21:14;;;;;;;;;;;;;;;23.73;39.19;101561.28;4217158;28;20064;-72
2024/02/14 10:23:16;;;;;;;;;;;;;;;23.75;38.98;101566.50;4232639;27;19928;-71
2024/02/14 10:25:18;;;;;;;;;;;;;;;23.73;39.07;101569.31;4235207;28;19970;-72
2024/02/14 10:27:20;;;;;;;;;;;;;;;23.79;38.84;101572.50;4234941;28;19981;-80
2024/02/14 10:29:22;;;;;;;;;;;;;;;23.81;39.17;101571.41;4234519;27;19935;-72